East Vassalboro, ME (04935)

4:42 AM EST on November 27, 2014 (GMT -0500)
Bog Road, Vassalboro | Change Station
CLOSE
Current Station
Personal Weather Station
Location: Vassalboro, ME
Elevation: 210 ft
Nearby Weather Stations

Elev 210 ft 44.45 °N, 69.63 °W | Updated 5 seconds ago

Snow
Snow
28.2 °F
Feels Like 28 °F
N
0.0
Wind Variable Wind from NW
Gusts 0.0 mph

Today
High -- | Low -- °F
--% Chance of Precip.
Yesterday
High -- | Low -- °F
Precip. -- in
6:49 AM 4:01 PM
Waxing Crescent, 28% visible
Pressure 29.71 in
Visibility 0.8 miles
Clouds Overcast 1000 ft
Windchill 28 °F
Dew Point Not available.
Humidity Not available.
Rainfall 0.00 in
Snow Depth Not available.
UV 0 out of 12
Pollen .10 out of 12
Air Quality Not available.
Flu Activity Not available.
METAR KWVL 270935Z 36020G26KT 3/4SM OVC010 M02/M05 A2971 RMK AO1

More Conditions Fewer Conditions

Pressure 29.71 in
Visibility 0.8 miles
Clouds Overcast 1000 ft
Windchill 28 °F
Dew Point Not available.
Humidity Not available.
Rainfall 0.00 in
Snow Depth Not available.
UV 0 out of 12
Pollen .10 out of 12
Air Quality Not available.
Flu Activity Not available.
METAR KWVL 270935Z 36020G26KT 3/4SM OVC010 M02/M05 A2971 RMK AO1

More Conditions Fewer Conditions

10-Day Weather Forecast

Almanac

Astronomy

Nov. 27, 2014 Rise Set
Actual Time
Civil Twilight
Nautical Twilight
Astronomical Twilight
Moon
Length of Visible Light
Length of Day
Tomorrow will be .
, % of the Moon is Illuminated

Today's Extremes

State Highs State Lows

Community

WunderPhotos

Upload Photos

1,773,965 photos uploaded!

WunderBlogs® & News

Nearby

Air Quality

  Air Quality AQ Index Pollutant
Not available.

Snow Depth

Station Depth Elevation

Earthquake Activity

City Distance Mag. Time & Date
Minimum magnitude displayed is 2.5.

Coastal Water Temperatures

Place Temperature

Nearby Weather Stations